createdAt,value
2022-09-28T00:02:19.589Z,11.57
2022-09-28T00:04:49.722Z,11.67
2022-09-28T00:07:18.397Z,11.63
2022-09-28T00:09:47.177Z,11.73
2022-09-28T00:12:16.001Z,11.77
2022-09-28T00:14:44.972Z,11.84
2022-09-28T00:17:14.196Z,11.79
2022-09-28T00:19:44.254Z,11.69
2022-09-28T00:22:14.352Z,11.76
2022-09-28T00:24:42.937Z,11.70
2022-09-28T00:27:11.769Z,11.66
2022-09-28T00:29:40.519Z,11.60
2022-09-28T00:32:13.925Z,11.65
2022-09-28T00:34:46.140Z,11.58
2022-09-28T00:37:19.045Z,11.58
2022-09-28T00:39:49.419Z,11.53
2022-09-28T00:42:19.937Z,11.48
2022-09-28T00:44:50.182Z,11.50
2022-09-28T00:47:29.553Z,11.55
2022-09-28T00:50:04.194Z,11.53
2022-09-28T00:52:37.434Z,11.54
2022-09-28T00:55:10.012Z,11.48
2022-09-28T00:57:41.488Z,11.48
2022-09-28T01:00:11.413Z,11.38
2022-09-28T01:02:41.906Z,11.38
2022-09-28T01:05:12.808Z,11.35
2022-09-28T01:07:44.209Z,11.34
2022-09-28T01:10:13.323Z,11.42
2022-09-28T01:12:42.194Z,11.31
2022-09-28T01:15:11.849Z,11.35
2022-09-28T01:17:57.511Z,11.36
2022-09-28T01:20:56.593Z,11.16
2022-09-28T01:23:51.260Z,11.16
2022-09-28T01:26:50.173Z,11.02
2022-09-28T01:29:26.044Z,10.89
2022-09-28T01:32:08.770Z,10.87
2022-09-28T01:34:45.195Z,10.67
2022-09-28T01:37:17.675Z,10.68
2022-09-28T01:39:50.127Z,10.73
2022-09-28T01:42:23.713Z,10.68
2022-09-28T01:44:57.004Z,10.79
2022-09-28T01:47:28.394Z,10.81
2022-09-28T01:50:02.393Z,10.83
2022-09-28T01:52:36.732Z,10.80
2022-09-28T01:55:11.111Z,10.72
2022-09-28T01:57:45.972Z,10.66
2022-09-28T02:00:17.389Z,10.59
2022-09-28T02:02:58.450Z,10.61
2022-09-28T02:05:44.042Z,10.56
2022-09-28T02:08:17.615Z,10.51
2022-09-28T02:10:51.198Z,10.52
2022-09-28T02:13:25.450Z,10.39
2022-09-28T02:15:59.820Z,10.36
2022-09-28T02:18:28.861Z,10.34
2022-09-28T02:21:01.963Z,10.31
2022-09-28T02:23:34.994Z,10.26
2022-09-28T02:26:08.249Z,10.16
2022-09-28T02:28:39.999Z,10.13
2022-09-28T02:31:09.149Z,10.19
2022-09-28T02:33:40.204Z,10.17
2022-09-28T02:36:09.605Z,10.11
2022-09-28T02:38:40.178Z,10.05
2022-09-28T02:41:27.930Z,9.97
2022-09-28T02:44:07.373Z,10.00
2022-09-28T02:46:46.931Z,10.03
2022-09-28T02:49:31.304Z,10.07
2022-09-28T02:52:16.357Z,10.12
2022-09-28T02:55:04.657Z,10.13
2022-09-28T02:57:48.287Z,10.29
2022-09-28T03:00:21.201Z,10.27
2022-09-28T03:02:52.542Z,10.12
2022-09-28T03:05:24.731Z,10.25
2022-09-28T03:08:00.376Z,10.27
2022-09-28T03:10:36.857Z,10.31
2022-09-28T03:13:07.300Z,10.41
2022-09-28T03:15:38.926Z,10.30
2022-09-28T03:18:07.734Z,10.36
2022-09-28T03:20:36.485Z,10.28
2022-09-28T03:23:24.880Z,10.15
2022-09-28T03:25:54.987Z,10.10
2022-09-28T03:28:23.994Z,10.03
2022-09-28T03:30:54.504Z,10.06
2022-09-28T03:33:24.112Z,10.06
2022-09-28T03:35:53.530Z,10.23
2022-09-28T03:38:22.910Z,10.26
2022-09-28T03:40:55.872Z,10.32
2022-09-28T03:43:25.724Z,10.32
2022-09-28T03:45:59.750Z,10.40
2022-09-28T03:48:32.893Z,10.38
2022-09-28T03:51:03.485Z,10.39
2022-09-28T03:53:32.178Z,10.45
2022-09-28T03:56:05.684Z,10.51
2022-09-28T03:58:35.166Z,10.48
2022-09-28T04:01:07.775Z,10.46
2022-09-28T04:03:37.522Z,10.41
2022-09-28T04:06:06.887Z,10.46
2022-09-28T04:08:37.196Z,10.52
2022-09-28T04:11:05.936Z,10.52
2022-09-28T04:13:35.895Z,10.52
2022-09-28T04:16:06.522Z,10.53
2022-09-28T04:18:36.562Z,10.49
2022-09-28T04:21:22.647Z,10.64
2022-09-28T04:23:58.429Z,10.77
2022-09-28T04:26:28.925Z,10.74
2022-09-28T04:29:16.332Z,10.70
2022-09-28T04:42:57.561Z,11.72
2022-09-28T04:45:27.681Z,11.58
2022-09-28T04:48:03.245Z,11.56
2022-09-28T04:50:54.016Z,11.56
2022-09-28T04:53:24.809Z,11.48
2022-09-28T04:56:00.206Z,11.47
2022-09-28T04:58:32.049Z,11.45
2022-09-28T05:01:03.071Z,11.48
2022-09-28T05:03:52.254Z,11.45
2022-09-28T05:06:35.420Z,11.51
2022-09-28T05:09:07.721Z,11.53
2022-09-28T05:11:36.637Z,11.65
2022-09-28T05:14:12.803Z,11.74
2022-09-28T05:16:42.480Z,11.68
2022-09-28T05:19:20.449Z,11.75
2022-09-28T05:21:50.686Z,12.03
2022-09-28T05:24:19.402Z,12.26
2022-09-28T05:26:52.714Z,12.34
2022-09-28T05:29:23.337Z,12.47
2022-09-28T05:32:12.409Z,12.56
2022-09-28T05:34:47.185Z,12.56
2022-09-28T05:37:23.294Z,12.68
2022-09-28T05:39:51.966Z,12.71
2022-09-28T05:42:20.754Z,12.76
2022-09-28T05:44:51.057Z,12.36
2022-09-28T05:47:19.804Z,12.65
2022-09-28T05:49:48.652Z,12.69
2022-09-28T05:52:17.515Z,12.74
2022-09-28T05:54:47.017Z,12.77
2022-09-28T05:57:16.403Z,12.84
2022-09-28T05:59:45.162Z,12.94
2022-09-28T06:02:15.378Z,12.95
2022-09-28T06:04:45.826Z,13.04
2022-09-28T06:07:14.558Z,13.17
2022-09-28T06:09:43.304Z,13.32
2022-09-28T06:12:12.129Z,13.78
2022-09-28T06:14:45.400Z,14.82
2022-09-28T06:17:15.955Z,15.45
2022-09-28T06:19:48.924Z,15.61
2022-09-28T06:22:36.445Z,15.58
2022-09-28T06:25:09.599Z,15.86
2022-09-28T06:27:42.703Z,16.31
2022-09-28T06:30:12.775Z,16.38
2022-09-28T06:32:43.770Z,16.26
2022-09-28T06:35:15.660Z,16.20
2022-09-28T06:37:46.543Z,16.02
2022-09-28T06:40:15.487Z,15.90
2022-09-28T06:42:44.527Z,15.69
2022-09-28T06:45:30.479Z,15.54
2022-09-28T06:48:26.676Z,15.44
2022-09-28T06:50:55.573Z,15.39
2022-09-28T06:53:30.097Z,15.33
2022-09-28T06:56:03.209Z,15.24
2022-09-28T06:58:32.656Z,15.05
2022-09-28T07:01:02.556Z,15.16
2022-09-28T07:03:41.720Z,15.24
2022-09-28T07:06:14.023Z,15.30
2022-09-28T07:09:01.717Z,15.32
2022-09-28T07:12:10.221Z,15.42
2022-09-28T07:14:57.506Z,15.47
2022-09-28T07:17:28.871Z,15.53
2022-09-28T07:20:16.172Z,15.67
2022-09-28T07:22:49.075Z,15.80
2022-09-28T07:25:22.842Z,15.93
2022-09-28T07:28:05.901Z,16.03
2022-09-28T07:30:51.209Z,16.14
2022-09-28T07:33:40.045Z,16.29
2022-09-28T07:36:36.544Z,16.37
2022-09-28T07:50:51.983Z,20.00
2022-09-28T07:53:56.297Z,20.20
2022-09-28T07:56:27.945Z,20.75
2022-09-28T07:59:02.922Z,21.07
2022-09-28T08:01:40.830Z,21.59
2022-09-28T08:04:12.282Z,21.87
2022-09-28T08:06:45.164Z,22.34
2022-09-28T08:09:15.402Z,22.49
2022-09-28T08:12:10.906Z,22.64
2022-09-28T08:14:46.167Z,22.89
2022-09-28T08:17:34.230Z,23.07
2022-09-28T08:20:24.953Z,23.26
2022-09-28T08:22:55.250Z,23.07
2022-09-28T08:25:24.494Z,23.01
2022-09-28T08:27:53.596Z,23.12
2022-09-28T08:30:25.627Z,23.07
2022-09-28T08:33:07.912Z,23.38
2022-09-28T08:35:46.986Z,23.65
2022-09-28T08:38:34.937Z,23.97
2022-09-28T08:41:37.035Z,24.11
2022-09-28T08:44:28.247Z,24.32
2022-09-28T08:47:32.429Z,24.31
2022-09-28T08:50:21.926Z,24.49
2022-09-28T08:53:22.122Z,24.56
2022-09-28T08:56:03.727Z,24.54
2022-09-28T08:58:38.275Z,24.83
2022-09-28T09:01:11.984Z,24.74
2022-09-28T09:03:42.073Z,24.66
2022-09-28T09:07:03.085Z,24.96
2022-09-28T09:09:49.288Z,24.95
2022-09-28T09:12:30.832Z,25.27
2022-09-28T09:15:27.396Z,25.52
2022-09-28T09:18:15.484Z,24.96
2022-09-28T09:20:58.726Z,25.44
2022-09-28T09:23:55.392Z,25.42
2022-09-28T09:26:37.345Z,25.26
2022-09-28T09:29:27.906Z,25.56
2022-09-28T09:32:14.830Z,25.81
2022-09-28T09:34:57.712Z,26.10
2022-09-28T09:38:19.416Z,26.31
2022-09-28T09:41:22.672Z,26.55
2022-09-28T09:44:32.971Z,26.32
2022-09-28T09:47:35.509Z,25.68
2022-09-28T09:50:15.231Z,25.04
2022-09-28T09:52:51.488Z,24.72
2022-09-28T09:55:30.086Z,23.84
2022-09-28T09:58:23.965Z,23.64
2022-09-28T10:01:09.232Z,23.21
2022-09-28T10:04:20.826Z,22.33
2022-09-28T10:06:54.388Z,22.54
2022-09-28T10:09:26.401Z,22.66
2022-09-28T10:11:59.129Z,22.92
2022-09-28T10:14:28.105Z,23.18
2022-09-28T10:17:08.370Z,23.26
2022-09-28T10:19:59.634Z,23.35
2022-09-28T10:22:47.157Z,23.53
2022-09-28T10:25:20.050Z,23.71
2022-09-28T10:27:52.420Z,23.98
2022-09-28T10:30:24.391Z,24.01
2022-09-28T10:32:59.589Z,23.94
2022-09-28T10:35:42.633Z,23.84
2022-09-28T10:38:18.731Z,23.73
2022-09-28T10:40:59.934Z,23.67
2022-09-28T10:43:51.289Z,23.48
2022-09-28T10:46:25.168Z,23.23
2022-09-28T10:49:03.884Z,22.95
2022-09-28T10:51:44.276Z,22.68
2022-09-28T10:54:19.608Z,22.61
2022-09-28T10:56:53.109Z,22.37
2022-09-28T10:59:44.317Z,22.25
2022-09-28T11:02:32.431Z,22.26
2022-09-28T11:05:23.980Z,22.28
2022-09-28T11:07:58.266Z,22.32
2022-09-28T11:10:34.886Z,22.35
2022-09-28T11:13:12.241Z,22.39
2022-09-28T11:15:45.601Z,22.43
2022-09-28T11:18:31.663Z,22.45
2022-09-28T11:21:14.854Z,22.54
2022-09-28T11:24:07.572Z,22.64
2022-09-28T11:26:44.199Z,22.69
2022-09-28T11:29:36.003Z,22.79
2022-09-28T11:32:23.673Z,22.88
2022-09-28T11:35:19.931Z,22.89
2022-09-28T11:38:04.892Z,22.88
2022-09-28T11:41:13.370Z,22.90
2022-09-28T11:43:58.005Z,22.89
2022-09-28T11:46:35.166Z,22.90
2022-09-28T11:49:28.921Z,22.84
2022-09-28T11:52:02.489Z,22.77
2022-09-28T11:54:40.065Z,22.76
2022-09-28T11:57:16.280Z,22.79
2022-09-28T11:59:54.450Z,22.59
2022-09-28T12:02:27.384Z,22.50
2022-09-28T12:05:15.921Z,22.46
2022-09-28T12:07:54.605Z,22.37
2022-09-28T12:10:51.303Z,22.31
2022-09-28T12:13:29.630Z,22.22
2022-09-28T12:16:38.410Z,22.24
2022-09-28T12:18:54.765Z,22.22
2022-09-28T12:21:37.878Z,22.07
2022-09-28T12:24:16.627Z,22.01
2022-09-28T12:26:53.294Z,21.90
2022-09-28T12:29:27.773Z,21.92
2022-09-28T12:32:05.968Z,21.74
2022-09-28T12:34:34.711Z,21.72
2022-09-28T12:37:27.882Z,21.65
2022-09-28T12:40:25.735Z,21.62
2022-09-28T12:43:31.410Z,21.55
2022-09-28T12:46:21.179Z,21.49
2022-09-28T12:50:33.381Z,21.47
2022-09-28T12:52:28.445Z,21.47
2022-09-28T12:55:14.478Z,21.44
2022-09-28T12:57:53.089Z,21.37
2022-09-28T13:00:25.392Z,21.42
2022-09-28T13:03:31.796Z,21.39
2022-09-28T13:06:52.053Z,21.42
2022-09-28T13:09:22.988Z,21.36
2022-09-28T13:12:06.556Z,21.37
2022-09-28T13:15:05.511Z,21.41
2022-09-28T13:17:48.195Z,21.35
2022-09-28T13:20:30.386Z,21.34
2022-09-28T13:23:15.296Z,21.28
2022-09-28T13:25:49.248Z,21.24
2022-09-28T13:28:24.994Z,21.16
2022-09-28T13:31:00.432Z,21.16
2022-09-28T13:33:35.894Z,21.16
2022-09-28T13:36:05.836Z,21.20
2022-09-28T13:38:49.790Z,21.22
2022-09-28T13:41:24.853Z,21.23
2022-09-28T13:44:12.451Z,21.27
2022-09-28T13:46:52.811Z,21.32
2022-09-28T13:49:27.699Z,21.46
2022-09-28T13:52:06.553Z,21.61
2022-09-28T13:55:04.003Z,21.74
2022-09-28T13:57:43.063Z,21.79
2022-09-28T14:00:30.185Z,21.74
2022-09-28T14:03:05.685Z,21.78
2022-09-28T14:08:29.554Z,21.86
2022-09-28T14:11:00.468Z,21.87
2022-09-28T14:14:01.210Z,21.84
2022-09-28T14:16:32.493Z,21.86
2022-09-28T14:19:07.275Z,21.89
2022-09-28T14:22:02.510Z,21.84
2022-09-28T14:24:53.229Z,21.77
2022-09-28T14:27:55.667Z,21.74
2022-09-28T14:30:26.435Z,21.69
2022-09-28T14:32:58.086Z,21.68
2022-09-28T14:35:32.996Z,21.69
2022-09-28T14:38:25.007Z,21.71
2022-09-28T14:41:12.850Z,21.65
2022-09-28T14:44:06.775Z,21.68
2022-09-28T14:46:37.828Z,21.75
2022-09-28T14:49:49.210Z,21.78
2022-09-28T14:52:40.800Z,21.77
2022-09-28T14:55:16.789Z,21.75
2022-09-28T14:57:46.235Z,21.67
2022-09-28T15:00:22.234Z,21.62
2022-09-28T15:02:53.049Z,21.60
2022-09-28T15:05:26.089Z,21.57
2022-09-28T15:07:56.310Z,21.45
2022-09-28T15:10:33.001Z,21.48
2022-09-28T15:13:03.228Z,21.45
2022-09-28T15:15:35.572Z,21.42
2022-09-28T15:18:21.836Z,21.35
2022-09-28T15:20:51.509Z,21.28
2022-09-28T15:23:34.435Z,21.16
2022-09-28T15:26:07.312Z,21.02
2022-09-28T15:28:36.712Z,20.98
2022-09-28T15:31:06.754Z,20.82
2022-09-28T15:33:53.486Z,20.74
2022-09-28T15:36:26.646Z,20.64
2022-09-28T15:38:58.923Z,20.56
2022-09-28T15:41:29.865Z,20.44
2022-09-28T15:44:23.684Z,20.37
2022-09-28T15:47:06.549Z,20.11
2022-09-28T15:49:41.355Z,20.00
2022-09-28T15:52:26.758Z,19.83
2022-09-28T15:54:56.866Z,19.73
2022-09-28T15:57:37.110Z,19.63
2022-09-28T16:00:08.490Z,19.51
2022-09-28T16:02:40.811Z,19.38
2022-09-28T16:05:36.012Z,19.17
2022-09-28T16:08:06.733Z,19.03
2022-09-28T16:10:36.113Z,19.05
2022-09-28T16:13:16.389Z,19.00
2022-09-28T16:15:45.871Z,18.91
2022-09-28T16:18:20.930Z,18.84
2022-09-28T16:20:52.474Z,18.79
2022-09-28T16:23:25.131Z,18.77
2022-09-28T16:25:58.932Z,18.76
2022-09-28T16:28:52.649Z,18.73
2022-09-28T16:31:30.376Z,18.66
2022-09-28T16:34:02.507Z,18.57
2022-09-28T16:36:43.706Z,18.57
2022-09-28T16:39:13.345Z,18.53
2022-09-28T16:41:45.349Z,18.51
2022-09-28T16:44:20.587Z,18.49
2022-09-28T16:46:49.636Z,18.55
2022-09-28T16:49:20.118Z,18.55
2022-09-28T16:51:49.512Z,18.50
2022-09-28T16:54:37.786Z,18.43
2022-09-28T16:57:07.679Z,18.35
2022-09-28T16:59:39.228Z,18.27
2022-09-28T17:02:42.341Z,18.24
2022-09-28T17:05:08.269Z,18.20
2022-09-28T17:07:37.313Z,18.15
2022-09-28T17:10:17.667Z,18.20
2022-09-28T17:12:47.445Z,18.12
2022-09-28T17:15:19.693Z,18.11
2022-09-28T17:17:49.641Z,18.03
2022-09-28T17:20:23.034Z,18.00
2022-09-28T17:22:52.231Z,17.69
2022-09-28T17:25:22.465Z,17.75
2022-09-28T17:27:52.876Z,17.73
2022-09-28T17:30:25.702Z,17.69
2022-09-28T17:32:54.429Z,17.68
2022-09-28T17:35:24.984Z,17.62
2022-09-28T17:37:54.712Z,17.66
2022-09-28T17:40:25.700Z,17.66
2022-09-28T17:42:56.229Z,17.66
2022-09-28T17:45:28.798Z,17.57
2022-09-28T17:47:57.751Z,17.57
2022-09-28T17:50:28.276Z,17.59
2022-09-28T17:53:00.027Z,17.64
2022-09-28T17:55:31.724Z,17.64
2022-09-28T17:58:02.211Z,17.63
2022-09-28T18:00:33.611Z,17.62
2022-09-28T18:03:02.449Z,17.61
2022-09-28T18:05:31.792Z,17.54
2022-09-28T18:08:00.694Z,17.43
2022-09-28T18:10:30.987Z,17.47
2022-09-28T18:12:59.727Z,17.46
2022-09-28T18:15:28.610Z,17.46
2022-09-28T18:17:59.074Z,17.45
2022-09-28T18:20:28.071Z,17.45
2022-09-28T18:22:57.107Z,17.46
2022-09-28T18:25:25.945Z,17.45
2022-09-28T18:27:57.520Z,17.38
2022-09-28T18:30:26.913Z,17.41
2022-09-28T18:32:56.040Z,17.41
2022-09-28T18:35:26.651Z,17.49
2022-09-28T18:37:55.349Z,17.49
2022-09-28T18:40:24.322Z,17.38
2022-09-28T18:42:53.503Z,17.33
2022-09-28T18:45:22.611Z,17.30
2022-09-28T18:47:51.466Z,17.24
2022-09-28T18:50:20.566Z,17.12
2022-09-28T18:52:50.877Z,16.99
2022-09-28T18:55:20.202Z,16.96
2022-09-28T18:57:49.130Z,16.92
2022-09-28T19:00:18.066Z,16.89
2022-09-28T19:02:47.039Z,16.81
2022-09-28T19:05:15.828Z,16.79
2022-09-28T19:07:44.635Z,16.74
2022-09-28T19:10:14.921Z,16.75
2022-09-28T19:12:43.752Z,16.69
2022-09-28T19:15:12.986Z,16.69
2022-09-28T19:17:42.687Z,16.65
2022-09-28T19:20:11.850Z,16.58
2022-09-28T19:22:40.562Z,16.61
2022-09-28T19:25:09.832Z,16.56
2022-09-28T19:27:40.834Z,16.53
2022-09-28T19:30:10.745Z,16.49
2022-09-28T19:32:39.470Z,16.46
2022-09-28T19:35:09.930Z,16.45
2022-09-28T19:37:39.567Z,16.42
2022-09-28T19:40:09.671Z,16.37
2022-09-28T19:42:41.067Z,16.32
2022-09-28T19:45:10.407Z,16.26
2022-09-28T19:47:39.245Z,16.21
2022-09-28T19:50:08.464Z,16.17
2022-09-28T19:52:37.289Z,16.13
2022-09-28T19:55:06.674Z,16.03
2022-09-28T19:57:35.410Z,15.96
2022-09-28T20:00:06.797Z,15.95
2022-09-28T20:02:35.960Z,15.84
2022-09-28T20:05:05.129Z,15.75
2022-09-28T20:07:34.916Z,15.78
2022-09-28T20:10:03.783Z,15.72
2022-09-28T20:12:33.089Z,15.66
2022-09-28T20:15:01.853Z,15.65
2022-09-28T20:17:34.091Z,15.60
2022-09-28T20:20:03.092Z,15.52
2022-09-28T20:22:31.906Z,15.52
2022-09-28T20:25:02.929Z,15.47
2022-09-28T20:27:31.772Z,15.41
2022-09-28T20:30:01.008Z,15.32
2022-09-28T20:32:35.353Z,15.30
2022-09-28T20:35:04.097Z,15.31
2022-09-28T20:37:33.606Z,15.23
2022-09-28T20:40:02.838Z,15.20
2022-09-28T20:42:32.913Z,15.16
2022-09-28T20:45:01.624Z,15.20
2022-09-28T20:47:33.433Z,15.24
2022-09-28T20:50:02.644Z,15.22
2022-09-28T20:52:31.533Z,15.23
2022-09-28T20:55:00.348Z,15.27
2022-09-28T20:57:29.384Z,15.27
2022-09-28T20:59:58.082Z,15.26
2022-09-28T21:02:26.930Z,15.23
2022-09-28T21:04:57.084Z,15.17
2022-09-28T21:07:25.771Z,15.17
2022-09-28T21:09:54.598Z,15.16
2022-09-28T21:12:26.167Z,15.11
2022-09-28T21:14:54.811Z,15.09
2022-09-28T21:17:24.186Z,15.07
2022-09-28T21:19:52.952Z,15.07
2022-09-28T21:22:23.046Z,14.94
2022-09-28T21:24:51.763Z,14.90
2022-09-28T21:27:20.479Z,14.91
2022-09-28T21:29:49.323Z,14.89
2022-09-28T21:32:18.104Z,14.88
2022-09-28T21:34:47.002Z,14.90
2022-09-28T21:37:15.722Z,14.91
2022-09-28T21:39:45.971Z,14.86
2022-09-28T21:42:14.605Z,14.88
2022-09-28T21:44:43.292Z,14.86
2022-09-28T21:47:12.042Z,14.80
2022-09-28T21:49:40.900Z,14.80
2022-09-28T21:52:09.629Z,14.83
2022-09-28T21:54:38.316Z,14.79
2022-09-28T21:57:09.068Z,14.81
2022-09-28T21:59:37.803Z,14.78
2022-09-28T22:02:07.490Z,14.74
2022-09-28T22:04:36.644Z,14.76
2022-09-28T22:07:05.323Z,14.73
2022-09-28T22:09:34.009Z,14.74
2022-09-28T22:12:03.329Z,14.59
2022-09-28T22:14:33.405Z,14.51
2022-09-28T22:17:02.145Z,14.50
2022-09-28T22:19:30.915Z,14.45
2022-09-28T22:21:59.630Z,14.40
2022-09-28T22:24:28.674Z,14.36
2022-09-28T22:26:57.406Z,14.36
2022-09-28T22:29:26.136Z,14.28
2022-09-28T22:32:02.210Z,14.28
2022-09-28T22:34:32.024Z,14.29
2022-09-28T22:37:01.290Z,14.27
2022-09-28T22:39:32.215Z,14.31
2022-09-28T22:42:04.129Z,14.32
2022-09-28T22:44:32.803Z,14.33
2022-09-28T22:47:03.389Z,14.36
2022-09-28T22:49:32.802Z,14.40
2022-09-28T22:52:01.696Z,14.45
2022-09-28T22:54:30.611Z,14.50
2022-09-28T22:56:59.311Z,14.49
2022-09-28T22:59:28.009Z,14.42
2022-09-28T23:01:56.759Z,14.47
2022-09-28T23:04:26.988Z,14.53
2022-09-28T23:06:55.570Z,14.58
2022-09-28T23:09:24.253Z,14.56
2022-09-28T23:11:52.975Z,14.55
2022-09-28T23:14:22.849Z,14.63
2022-09-28T23:16:51.599Z,14.61
2022-09-28T23:19:20.438Z,14.64
2022-09-28T23:21:50.753Z,14.64
2022-09-28T23:24:19.691Z,14.63
2022-09-28T23:26:48.362Z,14.61
2022-09-28T23:29:17.095Z,14.64
2022-09-28T23:31:45.928Z,14.66
2022-09-28T23:34:14.743Z,14.73
2022-09-28T23:36:43.352Z,14.75
2022-09-28T23:39:13.838Z,14.72
2022-09-28T23:41:42.494Z,14.73
2022-09-28T23:44:11.399Z,14.75
2022-09-28T23:46:40.233Z,14.74
2022-09-28T23:49:08.890Z,14.72
2022-09-28T23:51:37.553Z,14.68
2022-09-28T23:54:06.854Z,14.69
2022-09-28T23:56:36.999Z,14.73
2022-09-28T23:59:05.769Z,14.71
